Notice: Undefined index: language in /home/spanairv/public_html/vam/index.php on line 25
Spanair Virtual

 INFORMACIÓN METAR y TAF
METAR FOR KSEA
ADDS - METARS form results

(0037 UTC 25 April 2018)
Data provider http://aviationweather.gov/adds/metars/
 
METAR text: KSEA 242353Z 34012KT 10SM BKN250 24/03 A3007 RMK AO2 SLP187 T02390028 10250 20217 57016
Conditions at: KSEA (SEATTLE/METRO , WA, US) observed 2353 UTC 24 April 2018
Temperature: 23.9°C (75°F)
Dewpoint: 2.8°C (37°F) [RH = 25%]
Pressure (altimeter): 30.07 inches Hg (1018.4 mb)
[Sea-level pressure: 1018.7 mb]
Winds: from the NNW (340 degrees) at 14 MPH (12 knots; 6.2 m/s)
Visibility: 10 or more miles (16+ km)
Ceiling: 25000 feet AGL
Clouds: broken clouds at 25000 feet AGL
Weather: no significant weather observed at this time

Forecast for: KSEA (SEATTLE/METRO , WA, US)
Text: KSEA 242320Z 2500/2606 35012KT P6SM SCT250
Forecast period: 0000 to 0500 UTC 25 April 2018
Forecast type: FROM: standard forecast or significant change
Winds: from the N (350 degrees) at 14 MPH (12 knots; 6.2 m/s)
Visibility: 6 or more miles (10+ km)
Clouds: scattered clouds at 25000 feet AGL
Weather: no significant weather forecast for this period
Forecast for: KSEA (SEATTLE/METRO , WA, US)
Text: KSEA 242320Z 2500/2606 35012KT P6SM SCT250
Forecast period: 0000 to 0500 UTC 25 April 2018
Forecast type: FROM: standard forecast or significant change
Winds: from the N (350 degrees) at 14 MPH (12 knots; 6.2 m/s)
Visibility: 6 or more miles (10+ km)
Clouds: scattered clouds at 25000 feet AGL
Weather: no significant weather forecast for this period
Forecast for: KSEA (SEATTLE/METRO , WA, US)
Text: KSEA 242320Z 2500/2606 35012KT P6SM SCT250
Forecast period: 0500 to 1800 UTC 25 April 2018
Forecast type: FROM: standard forecast or significant change
Winds: from the NE (40 degrees) at 8 MPH (7 knots; 3.6 m/s)
Visibility: 6 or more miles (10+ km)
Ceiling: 20000 feet AGL
Clouds: broken clouds at 20000 feet AGL
Weather: no significant weather forecast for this period
Forecast for: KSEA (SEATTLE/METRO , WA, US)
Text: KSEA 242320Z 2500/2606 35012KT P6SM SCT250
Forecast period: 0500 to 1800 UTC 25 April 2018
Forecast type: FROM: standard forecast or significant change
Winds: from the NE (40 degrees) at 8 MPH (7 knots; 3.6 m/s)
Visibility: 6 or more miles (10+ km)
Ceiling: 20000 feet AGL
Clouds: broken clouds at 20000 feet AGL
Weather: no significant weather forecast for this period
Forecast for: KSEA (SEATTLE/METRO , WA, US)
Text: KSEA 242320Z 2500/2606 35012KT P6SM SCT250
Forecast period: 1800 UTC 25 April 2018 to 0600 UTC 26 April 2018
Forecast type: FROM: standard forecast or significant change
Winds: from the N (360 degrees) at 12 MPH (10 knots; 5.2 m/s)
Visibility: 6 or more miles (10+ km)
Clouds: scattered clouds at 25000 feet AGL
Weather: no significant weather forecast for this period
Forecast for: KSEA (SEATTLE/METRO , WA, US)
Text: KSEA 242320Z 2500/2606 35012KT P6SM SCT250
Forecast period: 1800 UTC 25 April 2018 to 0600 UTC 26 April 2018
Forecast type: FROM: standard forecast or significant change
Winds: from the N (360 degrees) at 12 MPH (10 knots; 5.2 m/s)
Visibility: 6 or more miles (10+ km)
Clouds: scattered clouds at 25000 feet AGL
Weather: no significant weather forecast for this period

 MAPA DE AEROPUERTO

 INFORMACIÓN DE PISTA
Pista 16C Longitud 9426 ft Ancho 150 ft
Elevación 430 ft Umbral desplazado 0 ft Rumbo de pista 180
Pista 34C Longitud 9426 ft Ancho 150 ft
Elevación 363 ft Umbral desplazado 0 ft Rumbo de pista 0
Pista 16L Longitud 11900 ft Ancho 150 ft
Elevación 432 ft Umbral desplazado 0 ft Rumbo de pista 180
Pista 34R Longitud 11900 ft Ancho 150 ft
Elevación 347 ft Umbral desplazado 0 ft Rumbo de pista 360
Pista 16R Longitud 9426 ft Ancho 150 ft
Elevación 430 ft Umbral desplazado 0 ft Rumbo de pista 180
Pista 34L Longitud 9426 ft Ancho 150 ft
Elevación 363 ft Umbral desplazado 0 ft Rumbo de pista 360

 FRECUANCIAS DEL AEROPUERTO
Tipo A/D Nombre APP/DEP Frecuencia 119.2 MHZ
Tipo ATIS Nombre ATIS Frecuencia 118 MHZ
Tipo CLD Nombre CLNC DEL Frecuencia 128 MHZ
Tipo GND Nombre GND Frecuencia 121.7 MHZ
Tipo TWR Nombre TWR Frecuencia 119.9 MHZ
Tipo UNIC Nombre UNICOM Frecuencia 122.95 MHZ

 RADIO AYUDAS DEL AEROPUERTO
Tipo NDB Nombre Dondo Frecuencia 224 KHZ
Tipo VORTAC Nombre Seattle Frecuencia 116800 KHZ
Tipo NDB Nombre Parkk Frecuencia 281 KHZ





VAM [v2.6.2]

Normativa | Spanair Virtual © 2017 | Customized by JZ © 2017 for Spanair Virtual